Chaflin Bridge, Illinois
Current Conditions -  °F | °C
As of 9:55 PM on Saturday 22 Nov 2014 (Local Time) from KSAR Reporting Station
Clear Clear  
Wind Chill: 55°   Ceiling: Unl
Heat Index: 55°   Visibility: 10mi
Dew Point: 43°   Wind: 15mph
Humidity: 63%   Direction: 180°S
Pressure: 29.94"   Gusts: NA
Location:  38.164°N, 90.1984°W
Report Text: KSAR 230355Z AUTO 18013KT 10SM CLR 13/06 A2994 RMK AO2 T01290061 401500039
Loading
Personal Weather Stations






























Interactive Weather Map New forecast layout! Learn more

10-Day Weather Forecast

Advertisements
Track Severe Weather on mobile